Time;durP1;ratioP1;P1;durP2;ratioP2;P2;SDS_P1;SDS_P2;PMS_P1;PMS_P2;Temp;Humidity;BMP_temperature;BMP_pressure;BME280_temperature;BME280_humidity;BME280_pressure;Samples;Min_cycle;Max_cycle;Signal;HPM_P1;HPM_P2
2022/11/19 00:00:44;;;;;;;3.92;2.40;;;3.00;99.90;;;;;;5001994;28;20488;-77
2022/11/19 00:03:13;;;;;;;2.50;2.40;;;3.00;99.90;;;;;;5002445;28;20638;-79
2022/11/19 00:05:43;;;;;;;2.07;1.87;;;3.00;99.90;;;;;;5001148;28;20081;-76
2022/11/19 00:08:11;;;;;;;2.93;2.73;;;3.00;99.90;;;;;;5003752;28;20770;-79
2022/11/19 00:10:37;;;;;;;2.10;1.90;;;3.00;99.90;;;;;;5001724;28;20048;-77
2022/11/19 00:13:04;;;;;;;2.03;1.90;;;2.90;99.90;;;;;;5003321;28;20053;-78
2022/11/19 00:15:32;;;;;;;1.27;1.23;;;3.00;99.90;;;;;;5001849;28;20050;-76
2022/11/19 00:17:58;;;;;;;4.03;2.30;;;2.90;99.90;;;;;;5003728;28;20081;-76
2022/11/19 00:20:24;;;;;;;2.57;1.73;;;3.00;99.90;;;;;;5001529;28;20077;-78
2022/11/19 00:22:51;;;;;;;6.63;3.43;;;3.00;99.90;;;;;;5001962;28;20100;-78
2022/11/19 00:25:17;;;;;;;4.50;2.70;;;3.00;99.90;;;;;;5004579;28;20054;-77
2022/11/19 00:27:42;;;;;;;2.97;2.23;;;3.00;99.90;;;;;;5006527;28;20076;-78
2022/11/19 00:30:08;;;;;;;1.67;1.20;;;2.90;99.90;;;;;;5005567;28;20543;-78
2022/11/19 00:32:34;;;;;;;2.87;1.93;;;2.90;99.90;;;;;;5005300;28;20037;-76
2022/11/19 00:35:00;;;;;;;2.03;1.83;;;3.00;99.90;;;;;;5006144;28;20374;-78
2022/11/19 00:37:25;;;;;;;2.67;2.23;;;2.90;99.90;;;;;;5007102;28;20168;-77
2022/11/19 00:39:52;;;;;;;1.77;1.60;;;2.90;99.90;;;;;;5005326;28;20042;-78
2022/11/19 00:42:17;;;;;;;2.27;2.07;;;2.90;99.90;;;;;;5006779;28;20061;-79
2022/11/19 00:44:43;;;;;;;1.97;1.23;;;2.90;99.90;;;;;;5006088;28;20485;-77
2022/11/19 00:47:08;;;;;;;1.53;1.30;;;2.90;99.90;;;;;;5006925;28;20509;-77
2022/11/19 00:49:34;;;;;;;2.13;1.83;;;2.90;99.90;;;;;;5006426;28;20548;-77
2022/11/19 00:52:00;;;;;;;2.90;2.07;;;2.90;99.90;;;;;;5004666;28;20045;-78
2022/11/19 00:54:25;;;;;;;1.27;1.17;;;2.90;99.90;;;;;;5007005;28;20049;-79
2022/11/19 00:56:51;;;;;;;3.93;1.73;;;2.90;99.90;;;;;;5006019;28;20038;-77
2022/11/19 00:59:16;;;;;;;1.40;1.30;;;2.90;99.90;;;;;;5005114;28;20084;-78
2022/11/19 01:01:42;;;;;;;4.13;1.73;;;2.90;99.90;;;;;;5006278;28;20038;-78
2022/11/19 01:04:08;;;;;;;1.93;1.50;;;2.90;99.90;;;;;;5005952;28;20083;-77
2022/11/19 01:06:33;;;;;;;1.47;1.37;;;2.90;99.90;;;;;;5005096;28;20177;-78
2022/11/19 01:08:59;;;;;;;1.83;1.33;;;2.90;99.90;;;;;;5005978;28;20066;-77
2022/11/19 01:11:28;;;;;;;1.57;1.47;;;2.90;99.90;;;;;;5006398;28;20159;-78
2022/11/19 01:13:54;;;;;;;5.03;2.53;;;2.80;99.90;;;;;;5004818;28;20050;-77
2022/11/19 01:16:36;;;;;;;1.60;1.50;;;2.80;99.90;;;;;;5005267;28;20038;-78
2022/11/19 01:19:03;;;;;;;;;;;2.80;99.90;;;;;;5005353;28;20042;-77
2022/11/19 01:21:30;;;;;;;3.07;2.80;;;2.80;99.90;;;;;;5003321;28;19973;-77
2022/11/19 01:23:56;;;;;;;4.13;3.33;;;2.80;99.90;;;;;;5004806;28;20045;-76
2022/11/19 01:26:23;;;;;;;2.87;2.27;;;2.70;99.90;;;;;;5005746;28;20071;-77
2022/11/19 01:28:49;;;;;;;5.97;1.87;;;2.80;99.90;;;;;;4987663;28;20050;-78
2022/11/19 01:31:18;;;;;;;2.40;1.37;;;2.70;99.90;;;;;;5004490;28;20048;-77
2022/11/19 01:33:44;;;;;;;2.27;1.40;;;2.80;99.90;;;;;;5004868;28;20451;-78
2022/11/19 01:36:22;;;;;;;1.90;1.80;;;2.80;99.90;;;;;;5002663;28;20092;-76
2022/11/19 01:38:49;;;;;;;3.23;2.43;;;2.70;99.90;;;;;;5003696;28;20566;-78
2022/11/19 01:41:20;;;;;;;2.03;1.83;;;2.70;99.90;;;;;;5005725;28;20045;-78
2022/11/19 01:43:49;;;;;;;1.63;1.33;;;2.60;99.90;;;;;;5005273;28;20046;-79
2022/11/19 01:46:18;;;;;;;3.00;2.70;;;2.60;99.90;;;;;;5005420;28;20109;-76
2022/11/19 01:49:17;;;;;;;2.77;2.20;;;2.60;99.90;;;;;;5005341;28;20503;-78
2022/11/19 01:51:50;;;;;;;1.60;1.50;;;2.60;99.90;;;;;;5000822;28;20057;-77
2022/11/19 01:54:25;;;;;;;3.13;2.47;;;2.50;99.90;;;;;;5003844;28;20505;-76
2022/11/19 01:56:52;;;;;;;2.77;2.23;;;2.50;99.90;;;;;;5004025;28;20057;-77
2022/11/19 01:59:19;;;;;;;1.93;1.77;;;2.40;99.90;;;;;;5005215;28;20119;-78
2022/11/19 02:01:44;;;;;;;2.80;1.97;;;2.40;99.90;;;;;;5005232;28;20042;-77
2022/11/19 02:04:12;;;;;;;2.83;2.43;;;2.40;99.90;;;;;;4987630;28;20049;-78
2022/11/19 02:06:38;;;;;;;5.17;3.43;;;2.40;99.90;;;;;;4986332;28;20116;-78
2022/11/19 02:09:04;;;;;;;3.13;2.83;;;2.40;99.90;;;;;;5004826;28;20053;-77
2022/11/19 02:11:45;;;;;;;2.47;2.17;;;2.30;99.90;;;;;;5003898;28;20380;-79
2022/11/19 02:14:14;;;;;;;2.80;2.53;;;2.30;99.90;;;;;;5003452;28;20567;-77
2022/11/19 02:16:45;;;;;;;2.20;2.07;;;2.20;99.90;;;;;;5003826;28;20120;-77
2022/11/19 02:19:24;;;;;;;12.80;3.37;;;2.20;99.90;;;;;;5005283;28;20048;-78
2022/11/19 02:22:22;;;;;;;4.20;3.30;;;2.20;99.90;;;;;;5003061;28;20375;-78
2022/11/19 02:25:06;;;;;;;4.03;2.73;;;2.20;99.90;;;;;;5003178;28;20049;-78
2022/11/19 02:27:41;;;;;;;2.60;1.83;;;2.10;99.90;;;;;;4987508;28;20427;-77
2022/11/19 02:30:11;;;;;;;4.20;1.70;;;2.10;99.90;;;;;;5004871;28;20626;-78
2022/11/19 02:32:51;;;;;;;2.87;2.07;;;2.10;99.90;;;;;;5003150;28;20052;-79
2022/11/19 02:35:44;;;;;;;4.20;2.00;;;2.10;99.90;;;;;;5002736;28;20515;-77
2022/11/19 02:38:09;;;;;;;3.85;2.75;;;2.00;99.90;;;;;;5003611;28;20046;-78
2022/11/19 02:40:41;;;;;;;6.53;3.53;;;2.00;99.90;;;;;;5002673;28;20120;-76
2022/11/19 02:43:17;;;;;;;5.93;2.75;;;1.90;99.90;;;;;;5003261;28;20045;-77
2022/11/19 02:45:58;;;;;;;2.77;2.57;;;1.90;99.90;;;;;;5004284;28;20042;-77
2022/11/19 02:48:30;;;;;;;4.27;3.53;;;1.90;99.90;;;;;;5004671;28;20042;-77
2022/11/19 02:50:59;;;;;;;3.03;2.80;;;1.80;99.90;;;;;;5002158;28;20485;-76
2022/11/19 02:53:25;;;;;;;2.63;1.50;;;1.80;99.90;;;;;;5003801;28;20061;-77
2022/11/19 03:04:29;;;;;;;2.90;2.13;;;1.70;99.90;;;;;;5003918;28;20072;-76
2022/11/19 03:07:11;;;;;;;5.00;3.00;;;1.60;99.90;;;;;;5003241;28;20045;-78
2022/11/19 03:09:45;;;;;;;2.65;1.70;;;1.60;99.90;;;;;;5019051;28;20045;-78
2022/11/19 03:12:29;;;;;;;4.83;2.53;;;1.50;99.90;;;;;;5002877;28;20124;-75
2022/11/19 03:18:00;;;;;;;3.80;2.40;;;1.50;99.90;;;;;;5002513;28;20050;-77
2022/11/19 03:20:32;;;;;;;2.67;2.10;;;1.40;99.90;;;;;;5001643;28;20045;-76
2022/11/19 03:23:34;;;;;;;4.27;2.40;;;1.40;99.90;;;;;;5003959;28;20041;-76
2022/11/19 03:26:13;;;;;;;4.20;2.67;;;1.40;99.90;;;;;;4972574;28;20096;-77
2022/11/19 03:28:39;;;;;;;6.87;3.03;;;1.40;99.90;;;;;;5003270;28;20524;-77
2022/11/19 03:31:06;;;;;;;3.83;3.43;;;1.30;99.90;;;;;;4986287;28;20081;-78
2022/11/19 03:33:41;;;;;;;4.00;2.60;;;1.30;99.90;;;;;;5003862;28;20085;-78
2022/11/19 03:36:11;;;;;;;3.43;2.70;;;1.30;99.90;;;;;;5001811;28;20062;-78
2022/11/19 03:38:41;;;;;;;4.67;3.83;;;1.20;99.90;;;;;;5003613;28;20622;-79
2022/11/19 03:41:10;;;;;;;3.53;3.10;;;1.10;99.90;;;;;;5002491;28;20045;-77
2022/11/19 03:43:40;;;;;;;2.30;2.10;;;1.10;99.90;;;;;;5003670;28;20045;-78
2022/11/19 03:46:13;;;;;;;2.33;2.03;;;1.10;99.90;;;;;;5004392;28;20657;-78
2022/11/19 03:48:41;;;;;;;3.80;2.53;;;1.10;99.90;;;;;;5002853;28;20046;-77
2022/11/19 03:51:20;;;;;;;3.10;2.80;;;1.00;99.90;;;;;;5003486;28;20100;-79
2022/11/19 03:53:46;;;;;;;3.40;2.87;;;1.10;99.90;;;;;;4986359;28;20543;-77
2022/11/19 03:56:16;;;;;;;5.90;4.47;;;1.00;99.90;;;;;;5002731;28;20046;-78
2022/11/19 03:58:43;;;;;;;4.27;2.93;;;1.00;99.90;;;;;;5003565;28;20136;-78
2022/11/19 04:01:09;;;;;;;4.87;2.33;;;0.90;99.90;;;;;;5005765;28;20038;-78
2022/11/19 04:03:35;;;;;;;4.90;2.73;;;0.90;99.90;;;;;;5006098;28;20103;-77
2022/11/19 04:06:02;;;;;;;4.13;3.07;;;0.90;99.90;;;;;;4988715;28;20085;-78
2022/11/19 04:08:27;;;;;;;2.77;1.87;;;0.90;99.90;;;;;;5007364;28;20640;-77
2022/11/19 04:10:53;;;;;;;2.27;2.07;;;0.90;99.90;;;;;;5007212;28;20045;-78
2022/11/19 04:13:19;;;;;;;3.73;3.20;;;0.90;99.90;;;;;;5007343;28;20659;-76
2022/11/19 04:15:44;;;;;;;4.03;2.43;;;0.80;99.90;;;;;;5007196;28;20726;-78
2022/11/19 04:18:10;;;;;;;4.30;3.33;;;0.80;99.90;;;;;;5006942;28;20073;-77
2022/11/19 04:20:35;;;;;;;3.20;2.33;;;0.80;99.90;;;;;;5004769;28;20065;-76
2022/11/19 04:23:01;;;;;;;2.90;2.13;;;0.80;99.90;;;;;;5005641;28;20408;-79
2022/11/19 04:25:27;;;;;;;3.10;2.67;;;0.80;99.90;;;;;;5006016;28;20069;-77
2022/11/19 04:27:52;;;;;;;3.10;2.03;;;0.70;99.90;;;;;;5006638;28;20061;-78
2022/11/19 04:30:18;;;;;;;4.30;3.90;;;0.70;99.90;;;;;;5007236;28;20069;-78
2022/11/19 04:32:43;;;;;;;2.23;2.13;;;0.70;99.90;;;;;;5005264;28;20056;-75
2022/11/19 04:35:09;;;;;;;4.13;2.37;;;0.70;99.90;;;;;;5005850;28;20396;-78
2022/11/19 04:37:35;;;;;;;4.90;3.17;;;0.70;99.90;;;;;;5005428;28;20046;-77
2022/11/19 04:40:01;;;;;;;2.77;2.47;;;0.60;99.90;;;;;;5004943;28;20056;-77
2022/11/19 04:42:26;;;;;;;2.60;2.40;;;0.60;99.90;;;;;;5007187;28;20053;-78
2022/11/19 04:44:52;;;;;;;3.47;2.40;;;0.60;99.90;;;;;;5006288;28;20567;-76
2022/11/19 04:47:18;;;;;;;2.23;2.07;;;0.50;99.90;;;;;;5006674;28;20108;-77
2022/11/19 04:49:44;;;;;;;6.33;2.53;;;0.50;99.90;;;;;;5005800;28;20497;-78
2022/11/19 04:52:09;;;;;;;2.77;2.13;;;0.50;99.90;;;;;;5005969;28;20480;-76
2022/11/19 04:54:35;;;;;;;2.77;2.57;;;0.50;99.90;;;;;;5005199;28;20092;-78
2022/11/19 04:57:00;;;;;;;1.63;1.53;;;0.50;99.90;;;;;;5004871;28;20053;-76
2022/11/19 04:59:26;;;;;;;2.63;2.17;;;0.50;99.90;;;;;;4988992;28;20815;-78
2022/11/19 05:01:51;;;;;;;5.13;3.27;;;0.50;99.90;;;;;;5004680;28;20049;-76
2022/11/19 05:04:17;;;;;;;3.13;2.77;;;0.50;99.90;;;;;;5004063;28;20062;-76
2022/11/19 05:06:43;;;;;;;7.57;3.50;;;0.40;99.90;;;;;;5004773;28;20084;-78
2022/11/19 05:09:08;;;;;;;2.93;2.13;;;0.40;99.90;;;;;;5005284;28;20058;-76
2022/11/19 05:11:34;;;;;;;4.20;2.77;;;0.40;99.90;;;;;;5004485;28;20096;-77
2022/11/19 05:13:59;;;;;;;1.90;1.80;;;0.30;99.90;;;;;;5004967;28;20054;-78
2022/11/19 05:16:25;;;;;;;2.93;2.10;;;0.30;99.90;;;;;;5006172;28;20048;-76
2022/11/19 05:18:50;;;;;;;5.03;2.30;;;0.30;99.90;;;;;;5005933;28;20891;-77
2022/11/19 05:21:16;;;;;;;2.20;1.90;;;0.30;99.90;;;;;;5004176;28;20492;-78
2022/11/19 05:23:42;;;;;;;4.43;2.83;;;0.30;99.90;;;;;;5004389;28;20729;-76
2022/11/19 05:26:07;;;;;;;2.77;2.57;;;0.30;99.90;;;;;;5005545;28;20045;-77
2022/11/19 05:28:33;;;;;;;3.83;2.80;;;0.30;99.90;;;;;;5004673;28;20046;-75
2022/11/19 05:30:59;;;;;;;4.47;2.33;;;0.20;99.90;;;;;;5005966;28;20053;-78
2022/11/19 05:33:24;;;;;;;2.63;2.40;;;0.30;99.90;;;;;;5005697;28;20045;-78
2022/11/19 05:35:50;;;;;;;2.97;2.43;;;0.20;99.90;;;;;;5003167;28;20042;-76
2022/11/19 05:38:16;;;;;;;3.83;2.13;;;0.20;99.90;;;;;;5005993;28;20384;-78
2022/11/19 05:40:44;;;;;;;3.23;2.23;;;0.20;99.90;;;;;;5005803;28;20120;-76
2022/11/19 05:43:11;;;;;;;3.50;1.93;;;0.10;99.90;;;;;;5005228;28;20209;-76
2022/11/19 05:45:36;;;;;;;3.83;3.43;;;0.10;99.90;;;;;;4987978;28;20041;-75
2022/11/19 05:48:02;;;;;;;2.50;2.30;;;0.10;99.90;;;;;;5003516;28;20065;-76
2022/11/19 05:50:27;;;;;;;3.57;2.67;;;0.10;99.90;;;;;;5003717;28;20049;-78
2022/11/19 05:52:53;;;;;;;3.80;2.57;;;0.10;99.90;;;;;;5003648;28;20046;-77
2022/11/19 05:55:19;;;;;;;4.03;3.20;;;0.10;99.90;;;;;;5004575;28;20041;-76
2022/11/19 05:57:45;;;;;;;6.33;3.53;;;0.10;99.90;;;;;;5005490;28;20554;-76
2022/11/19 06:00:11;;;;;;;3.17;2.90;;;0.10;99.90;;;;;;5004965;28;20101;-77
2022/11/19 06:02:37;;;;;;;4.33;2.27;;;0.00;99.90;;;;;;5005187;28;20097;-77
2022/11/19 06:05:03;;;;;;;2.50;1.80;;;0.00;99.90;;;;;;5003882;28;20100;-76
2022/11/19 06:07:28;;;;;;;2.53;1.80;;;0.00;99.90;;;;;;5005373;28;20599;-77
2022/11/19 06:09:54;;;;;;;4.63;2.80;;;0.00;99.90;;;;;;5003408;28;20092;-76
2022/11/19 06:12:19;;;;;;;4.73;3.33;;;0.00;99.90;;;;;;5003903;28;20629;-77
2022/11/19 06:14:45;;;;;;;4.43;2.83;;;-0.10;99.90;;;;;;5003888;28;20085;-77
2022/11/19 06:17:10;;;;;;;6.40;2.77;;;-0.10;99.90;;;;;;5004728;28;20115;-77
2022/11/19 06:19:36;;;;;;;2.07;1.97;;;-0.10;99.90;;;;;;5002566;28;20581;-78
2022/11/19 06:22:01;;;;;;;2.77;2.50;;;-0.10;99.90;;;;;;5004795;28;20448;-77
2022/11/19 06:24:27;;;;;;;2.87;2.63;;;-0.10;99.90;;;;;;5002796;28;20064;-76
2022/11/19 06:26:53;;;;;;;4.27;2.53;;;-0.10;99.90;;;;;;4986836;28;20144;-77
2022/11/19 06:29:18;;;;;;;2.93;2.40;;;-0.20;99.90;;;;;;5003354;28;20412;-75
2022/11/19 06:31:45;;;;;;;4.60;2.80;;;-0.10;99.90;;;;;;5004745;28;20030;-77
2022/11/19 06:34:10;;;;;;;3.27;2.00;;;-0.10;99.90;;;;;;5003250;28;20050;-78
2022/11/19 06:36:36;;;;;;;3.20;2.87;;;-0.20;99.90;;;;;;4986940;28;20103;-76
2022/11/19 06:39:02;;;;;;;2.57;1.97;;;-0.20;99.90;;;;;;5003713;28;20049;-77
2022/11/19 06:41:27;;;;;;;4.73;3.50;;;-0.20;99.90;;;;;;5004355;28;20049;-77
2022/11/19 06:43:53;;;;;;;3.00;2.73;;;-0.20;99.90;;;;;;5004440;28;20046;-75
2022/11/19 06:46:19;;;;;;;3.80;2.00;;;-0.20;99.90;;;;;;5004154;28;20046;-77
2022/11/19 06:48:44;;;;;;;3.57;2.70;;;-0.20;99.90;;;;;;5002951;28;20042;-76
2022/11/19 06:51:10;;;;;;;4.30;2.97;;;-0.20;99.90;;;;;;5001727;28;20112;-77
2022/11/19 06:53:36;;;;;;;6.90;2.90;;;-0.20;99.90;;;;;;5004511;28;20137;-78
2022/11/19 06:56:04;;;;;;;2.83;2.63;;;-0.20;99.90;;;;;;5003379;28;20034;-77
2022/11/19 06:58:30;;;;;;;3.03;2.83;;;-0.30;99.90;;;;;;5016379;28;20588;-78
2022/11/19 07:00:56;;;;;;;4.17;2.50;;;-0.30;99.90;;;;;;5005698;28;20042;-79
2022/11/19 07:03:23;;;;;;;2.33;1.70;;;-0.30;99.90;;;;;;5005500;28;20042;-78
2022/11/19 07:05:53;;;;;;;5.27;2.83;;;-0.30;99.90;;;;;;5004288;28;20053;-76
2022/11/19 07:08:18;;;;;;;2.63;2.43;;;-0.30;99.90;;;;;;4984950;28;20050;-79
2022/11/19 07:10:44;;;;;;;3.73;2.10;;;-0.30;99.90;;;;;;5013403;28;20083;-83
2022/11/19 07:13:09;;;;;;;6.47;3.53;;;-0.30;99.90;;;;;;5013384;28;20081;-79
2022/11/19 07:15:35;;;;;;;4.03;2.63;;;-0.30;99.90;;;;;;4990797;28;20050;-79
2022/11/19 07:18:01;;;;;;;3.60;3.30;;;-0.30;99.90;;;;;;4966863;28;20050;-79
2022/11/19 07:20:27;;;;;;;4.00;2.53;;;-0.30;99.90;;;;;;4998703;28;20057;-80
2022/11/19 07:22:52;;;;;;;2.70;2.43;;;-0.30;99.90;;;;;;5003630;28;20046;-80
2022/11/19 07:25:18;;;;;;;2.93;2.73;;;-0.30;99.90;;;;;;5000992;28;20047;-79
2022/11/19 07:27:46;;;;;;;2.73;2.33;;;-0.30;99.90;;;;;;4986448;28;20049;-77
2022/11/19 07:30:12;;;;;;;3.40;2.80;;;-0.30;99.90;;;;;;4992247;28;20125;-80
2022/11/19 07:32:39;;;;;;;3.20;2.77;;;-0.30;99.90;;;;;;5002206;28;20046;-76
2022/11/19 07:35:05;;;;;;;5.00;2.57;;;-0.30;99.90;;;;;;5001229;28;20053;-78
2022/11/19 07:37:30;;;;;;;4.63;2.57;;;-0.30;99.90;;;;;;5003254;28;20046;-76
2022/11/19 07:39:56;;;;;;;6.07;3.03;;;-0.30;99.90;;;;;;4985328;28;20878;-80
2022/11/19 07:45:06;;;;;;;5.73;2.13;;;-0.30;99.90;;;;;;5003553;28;20092;-76
2022/11/19 07:47:33;;;;;;;6.53;2.57;;;-0.30;99.90;;;;;;5001899;28;20049;-79
2022/11/19 07:49:58;;;;;;;3.40;1.87;;;-0.30;99.90;;;;;;5001284;28;20090;-80
2022/11/19 07:52:24;;;;;;;9.00;2.30;;;-0.30;99.90;;;;;;5002021;28;20077;-79
2022/11/19 07:54:49;;;;;;;3.17;1.80;;;-0.30;99.90;;;;;;5001659;28;20050;-80
2022/11/19 07:57:15;;;;;;;5.10;3.00;;;-0.30;99.90;;;;;;5001649;28;20126;-79
2022/11/19 07:59:40;;;;;;;2.73;2.33;;;-0.30;99.90;;;;;;5001965;28;20342;-80
2022/11/19 08:02:09;;;;;;;4.33;2.63;;;-0.30;99.90;;;;;;5001972;28;20124;-79
2022/11/19 08:04:35;;;;;;;2.47;2.30;;;-0.20;99.90;;;;;;4985316;28;20038;-79
2022/11/19 08:07:00;;;;;;;4.30;2.10;;;-0.20;99.90;;;;;;4984776;28;20114;-77
2022/11/19 08:09:26;;;;;;;5.27;3.50;;;-0.20;99.90;;;;;;5002157;28;20077;-77
2022/11/19 08:11:52;;;;;;;4.97;3.17;;;-0.20;99.90;;;;;;5000096;28;20046;-77
2022/11/19 08:14:17;;;;;;;3.60;2.80;;;-0.20;99.90;;;;;;5001709;28;20042;-78
2022/11/19 08:19:27;;;;;;;3.73;2.97;;;-0.20;99.90;;;;;;5002556;28;20136;-77
2022/11/19 08:21:52;;;;;;;4.37;2.87;;;-0.20;99.90;;;;;;5002809;28;20471;-79
2022/11/19 08:24:19;;;;;;;4.47;3.90;;;-0.10;99.90;;;;;;5004399;28;20046;-77
2022/11/19 08:26:45;;;;;;;3.37;3.07;;;-0.10;99.90;;;;;;5007481;28;20042;-79
2022/11/19 08:29:12;;;;;;;4.03;2.63;;;-0.10;99.90;;;;;;5000492;28;20037;-79
2022/11/19 08:31:40;;;;;;;3.13;2.83;;;-0.10;99.90;;;;;;5004765;28;20030;-80
2022/11/19 08:34:06;;;;;;;2.43;2.23;;;-0.10;99.90;;;;;;4995480;28;20048;-80
2022/11/19 08:36:31;;;;;;;3.40;2.20;;;0.00;99.90;;;;;;5022575;28;20045;-76
2022/11/19 08:38:58;;;;;;;2.43;2.23;;;0.00;99.90;;;;;;5005563;28;20045;-79
2022/11/19 08:44:08;;;;;;;6.43;2.80;;;0.10;99.90;;;;;;5005693;28;20093;-77
2022/11/19 08:46:33;;;;;;;4.87;2.80;;;0.10;99.90;;;;;;5004542;28;20074;-79
2022/11/19 08:48:59;;;;;;;3.53;3.10;;;0.10;99.90;;;;;;5013584;28;20450;-77
2022/11/19 08:51:25;;;;;;;3.90;2.80;;;0.20;99.90;;;;;;5005427;28;20042;-79
2022/11/19 08:53:51;;;;;;;3.73;2.83;;;0.20;99.90;;;;;;5006171;28;20129;-76
2022/11/19 08:56:17;;;;;;;6.57;2.97;;;0.20;99.90;;;;;;5021287;28;20041;-77
2022/11/19 08:58:43;;;;;;;4.90;3.50;;;0.20;99.90;;;;;;5026011;28;20041;-78
2022/11/19 09:01:10;;;;;;;6.90;5.10;;;0.30;99.90;;;;;;5020085;28;20042;-76
2022/11/19 09:03:36;;;;;;;4.03;3.73;;;0.30;99.90;;;;;;5004894;28;20034;-78
2022/11/19 09:06:02;;;;;;;3.40;3.10;;;0.30;99.90;;;;;;5024867;28;20480;-77
2022/11/19 09:08:28;;;;;;;4.50;2.43;;;0.30;99.90;;;;;;5017588;28;20096;-80
2022/11/19 09:10:54;;;;;;;3.90;3.30;;;0.40;99.90;;;;;;5012468;28;20085;-79
2022/11/19 09:13:19;;;;;;;11.47;3.33;;;0.40;99.90;;;;;;5005514;28;20757;-80
2022/11/19 09:15:49;;;;;;;4.00;3.07;;;0.40;99.90;;;;;;5001747;28;20053;-78
2022/11/19 09:18:14;;;;;;;5.57;3.10;;;0.40;99.90;;;;;;5004430;28;20053;-77
2022/11/19 09:20:40;;;;;;;3.20;1.97;;;0.50;99.90;;;;;;5007045;28;20400;-79
2022/11/19 09:23:06;;;;;;;3.53;3.17;;;0.50;99.90;;;;;;5015985;28;20041;-80
2022/11/19 09:25:32;;;;;;;6.17;3.40;;;0.50;99.90;;;;;;5008977;28;20048;-78
2022/11/19 09:27:58;;;;;;;3.53;2.63;;;0.50;99.90;;;;;;5008969;28;20124;-78
2022/11/19 09:30:24;;;;;;;3.40;3.10;;;0.50;99.90;;;;;;5021959;28;20125;-78
2022/11/19 09:32:50;;;;;;;3.53;2.70;;;0.60;99.90;;;;;;5024224;28;20044;-77
2022/11/19 09:35:15;;;;;;;5.17;3.80;;;0.60;99.90;;;;;;5016093;28;20041;-74
2022/11/19 09:37:41;;;;;;;3.83;3.23;;;0.60;99.90;;;;;;4989034;28;20037;-75
2022/11/19 09:40:09;;;;;;;2.33;2.13;;;0.70;99.90;;;;;;5017465;28;20476;-75
2022/11/19 09:42:39;;;;;;;4.40;3.53;;;0.60;99.90;;;;;;5004442;28;20045;-76
2022/11/19 09:45:21;;;;;;;5.40;3.90;;;0.70;99.90;;;;;;4990996;28;20040;-78
2022/11/19 09:48:02;;;;;;;4.23;2.63;;;0.70;99.90;;;;;;4999935;28;20149;-78
2022/11/19 09:50:49;;;;;;;7.03;3.37;;;0.70;99.90;;;;;;4992192;28;20113;-81
2022/11/19 09:53:18;;;;;;;5.67;2.77;;;0.70;99.90;;;;;;5012373;28;20339;-79
2022/11/19 09:55:46;;;;;;;6.07;4.10;;;0.80;99.90;;;;;;5025425;28;20103;-77
2022/11/19 09:58:24;;;;;;;5.00;2.50;;;0.80;99.90;;;;;;5023167;28;20249;-76
2022/11/19 10:00:50;;;;;;;3.27;2.97;;;0.80;99.90;;;;;;5003495;28;20568;-76
2022/11/19 10:03:19;;;;;;;5.13;3.37;;;0.90;99.90;;;;;;5008540;28;20168;-77
2022/11/19 10:06:13;;;;;;;3.70;3.03;;;0.90;99.90;;;;;;5014327;28;20634;-76
2022/11/19 10:08:50;;;;;;;5.07;2.77;;;0.90;99.90;;;;;;5003756;28;20057;-77
2022/11/19 10:11:27;;;;;;;3.97;2.57;;;1.00;99.90;;;;;;4986396;28;20053;-78
2022/11/19 10:13:56;;;;;;;3.80;2.30;;;1.00;99.90;;;;;;5001405;28;20117;-79
2022/11/19 10:16:47;;;;;;;7.27;3.87;;;1.00;99.90;;;;;;5007313;28;20404;-78
2022/11/19 10:19:21;;;;;;;4.63;3.30;;;1.00;99.90;;;;;;4988206;28;20451;-78
2022/11/19 10:21:58;;;;;;;2.87;2.20;;;1.10;99.90;;;;;;5012483;28;20042;-79
2022/11/19 10:24:41;;;;;;;5.10;3.10;;;1.10;99.90;;;;;;5003921;28;20440;-80
2022/11/19 10:27:29;;;;;;;3.13;2.43;;;1.10;99.90;;;;;;4998107;28;20046;-78
2022/11/19 10:30:00;;;;;;;3.70;3.40;;;1.10;99.90;;;;;;5001160;28;20508;-79
2022/11/19 10:32:39;;;;;;;5.83;3.77;;;1.10;99.90;;;;;;5002720;28;20033;-79
2022/11/19 10:35:17;;;;;;;3.83;2.90;;;1.20;99.90;;;;;;5000655;28;20312;-77
2022/11/19 10:38:01;;;;;;;2.77;2.13;;;1.20;99.90;;;;;;5002287;28;20061;-79
2022/11/19 10:40:58;;;;;;;1.90;1.80;;;1.20;99.90;;;;;;5006158;28;20069;-78
2022/11/19 10:43:47;;;;;;;2.83;2.63;;;1.20;99.90;;;;;;4994058;28;20054;-77
2022/11/19 10:46:18;;;;;;;2.53;2.10;;;1.30;99.90;;;;;;4985047;28;20065;-76
2022/11/19 10:48:57;;;;;;;4.60;3.20;;;1.30;99.90;;;;;;4985340;28;20052;-77
2022/11/19 10:51:29;;;;;;;3.60;3.10;;;1.40;99.90;;;;;;4994258;28;20081;-79
2022/11/19 10:53:56;;;;;;;2.53;1.90;;;1.40;99.90;;;;;;5000695;28;20049;-76
2022/11/19 10:56:25;;;;;;;2.73;2.53;;;1.40;99.90;;;;;;4997776;28;20056;-79
2022/11/19 10:59:15;;;;;;;4.43;3.30;;;1.40;99.90;;;;;;4997954;28;20112;-81
2022/11/19 11:01:43;;;;;;;4.93;3.93;;;1.40;99.90;;;;;;4992640;28;20042;-77
2022/11/19 11:04:17;;;;;;;4.27;2.80;;;1.50;99.90;;;;;;5012224;28;20052;-79
2022/11/19 11:07:00;;;;;;;3.20;2.83;;;1.50;99.90;;;;;;5022471;28;20140;-81
2022/11/19 11:09:38;;;;;;;3.97;3.53;;;1.50;99.90;;;;;;5002761;28;20050;-78
2022/11/19 11:15:20;;;;;;;;;;;1.50;99.90;;;;;;5002919;28;20617;-79
2022/11/19 11:17:58;;;;;;;2.90;2.20;;;1.60;99.90;;;;;;5003872;28;20002;-82
2022/11/19 11:20:27;;;;;;;4.53;1.57;;;1.60;99.90;;;;;;5012185;28;20037;-84
2022/11/19 11:23:09;;;;;;;3.53;3.23;;;1.60;99.90;;;;;;5001927;28;20049;-81
2022/11/19 11:25:36;;;;;;;;;;;1.60;99.90;;;;;;5002767;28;20049;-81
2022/11/19 11:28:10;;;;;;;3.40;2.23;;;1.70;99.90;;;;;;5001803;28;19964;-78
2022/11/19 11:30:36;;;;;;;2.57;2.27;;;1.70;99.90;;;;;;5002549;28;20137;-81
2022/11/19 11:33:25;;;;;;;2.60;2.40;;;1.70;99.90;;;;;;5002165;28;20556;-81
2022/11/19 11:35:53;;;;;;;3.83;1.70;;;1.80;99.90;;;;;;5002256;28;20050;-77
2022/11/19 11:38:22;;;;;;;3.40;2.33;;;1.80;99.90;;;;;;5002335;28;20833;-79
2022/11/19 11:41:03;;;;;;;5.37;2.67;;;1.80;99.90;;;;;;5003597;28;20524;-79
2022/11/19 11:43:29;;;;;;;7.23;4.03;;;1.80;99.90;;;;;;5002460;28;20050;-79
2022/11/19 11:45:58;;;;;;;1.90;1.80;;;1.80;99.90;;;;;;5003297;28;20113;-80
2022/11/19 11:48:28;;;;;;;4.47;3.23;;;1.80;99.90;;;;;;5001263;28;20060;-81
2022/11/19 11:50:54;;;;;;;2.53;2.30;;;1.90;99.90;;;;;;5001779;28;20050;-78
2022/11/19 11:53:31;;;;;;;6.63;3.40;;;1.90;99.90;;;;;;5003466;28;20038;-79
2022/11/19 11:56:01;;;;;;;4.67;2.93;;;1.90;99.90;;;;;;5001230;28;20389;-79
2022/11/19 11:58:30;;;;;;;3.40;2.67;;;1.90;99.90;;;;;;4995142;28;20515;-80
2022/11/19 12:01:13;;;;;;;2.43;2.17;;;1.90;99.90;;;;;;5002122;28;20049;-79
2022/11/19 12:03:57;;;;;;;3.03;2.27;;;2.00;99.90;;;;;;5002400;28;20053;-79
2022/11/19 12:06:28;;;;;;;2.87;2.60;;;2.00;99.90;;;;;;4996628;28;20124;-79
2022/11/19 12:09:15;;;;;;;2.50;2.10;;;2.00;99.90;;;;;;5001290;28;20058;-79
2022/11/19 12:12:00;;;;;;;5.80;2.67;;;2.00;99.90;;;;;;4984747;28;20065;-79
2022/11/19 12:14:35;;;;;;;1.87;1.77;;;2.00;99.90;;;;;;4995153;28;20438;-78
2022/11/19 12:17:23;;;;;;;5.33;2.80;;;2.10;99.90;;;;;;5002145;28;20046;-80
2022/11/19 12:20:23;;;;;;;1.90;1.60;;;2.10;99.90;;;;;;4976601;28;20041;-79
2022/11/19 12:22:57;;;;;;;7.23;4.17;;;2.10;99.90;;;;;;4980534;28;20050;-79
2022/11/19 12:25:38;;;;;;;2.93;2.13;;;2.10;99.90;;;;;;4973690;28;20057;-81
2022/11/19 12:28:07;;;;;;;4.78;2.60;;;2.20;99.90;;;;;;5000205;28;20057;-77
2022/11/19 12:30:38;;;;;;;4.07;2.33;;;2.20;99.90;;;;;;5005435;28;20050;-79
2022/11/19 12:33:21;;;;;;;1.77;1.63;;;2.20;99.90;;;;;;5003882;28;20046;-80
2022/11/19 12:36:29;;;;;;;8.80;3.33;;;2.20;99.90;;;;;;5005749;28;20392;-78
2022/11/19 12:39:17;;;;;;;2.97;1.87;;;2.20;99.90;;;;;;5005216;28;20424;-78
2022/11/19 12:42:00;;;;;;;7.30;2.63;;;2.20;99.90;;;;;;5006315;28;20041;-79
2022/11/19 12:44:33;;;;;;;3.10;2.50;;;2.20;99.90;;;;;;4985376;28;20153;-81
2022/11/19 12:47:12;;;;;;;5.43;2.30;;;2.30;99.90;;;;;;4993757;28;20137;-80
2022/11/19 12:50:01;;;;;;;3.27;2.27;;;2.30;99.90;;;;;;5003484;28;20605;-81
2022/11/19 12:52:36;;;;;;;4.67;2.50;;;2.30;99.90;;;;;;4987984;28;20050;-81
2022/11/19 12:55:14;;;;;;;2.57;2.37;;;2.30;99.90;;;;;;5005972;28;20052;-81
2022/11/19 12:57:49;;;;;;;2.17;2.00;;;2.30;99.90;;;;;;5004474;28;20111;-78
2022/11/19 13:00:18;;;;;;;2.60;1.63;;;2.40;99.90;;;;;;4987520;28;20092;-81
2022/11/19 13:02:43;;;;;;;2.53;1.80;;;2.40;99.90;;;;;;4988083;28;20034;-79
2022/11/19 13:05:32;;;;;;;4.03;2.17;;;2.40;99.90;;;;;;5004003;28;20049;-79
2022/11/19 13:08:05;;;;;;;2.67;2.27;;;2.40;99.90;;;;;;4987242;28;20083;-80
2022/11/19 13:11:02;;;;;;;2.13;2.00;;;2.40;99.90;;;;;;5010019;28;20096;-80
2022/11/19 13:13:29;;;;;;;3.57;2.67;;;2.50;99.90;;;;;;4990190;28;20060;-81
2022/11/19 13:16:14;;;;;;;1.43;1.40;;;2.40;99.90;;;;;;5014932;28;20041;-83
2022/11/19 13:18:44;;;;;;;1.93;1.83;;;2.50;99.90;;;;;;5011579;28;20065;-80
2022/11/19 13:21:48;;;;;;;2.33;1.87;;;2.50;99.90;;;;;;5000412;28;20410;-79
2022/11/19 13:24:24;;;;;;;3.60;2.63;;;2.50;99.90;;;;;;4997628;28;20054;-81
2022/11/19 13:26:50;;;;;;;6.73;3.10;;;2.50;99.90;;;;;;4993184;28;20033;-80
2022/11/19 13:29:43;;;;;;;5.33;3.33;;;2.50;99.90;;;;;;5005768;28;20042;-82
2022/11/19 13:32:21;;;;;;;3.22;1.77;;;2.50;99.90;;;;;;5007800;28;20423;-82
2022/11/19 13:35:01;;;;;;;1.50;1.40;;;2.50;99.90;;;;;;4985813;28;20515;-79